Time;durP1;ratioP1;P1;durP2;ratioP2;P2;SDS_P1;SDS_P2;PMS_P1;PMS_P2;Temp;Humidity;BMP_temperature;BMP_pressure;BME280_temperature;BME280_humidity;BME280_pressure;Samples;Min_cycle;Max_cycle;Signal;HPM_P1;HPM_P2
2022/12/09 00:00:30;;;;;;;35.65;20.38;;;;;;;0.66;100.00;100576.88;5031231;28;20116;-76
2022/12/09 00:02:56;;;;;;;39.45;20.35;;;;;;;0.69;100.00;100585.66;5047660;28;20729;-75
2022/12/09 00:05:22;;;;;;;36.40;19.45;;;;;;;0.68;100.00;100572.34;5047934;28;20025;-77
2022/12/09 00:07:47;;;;;;;37.55;19.40;;;;;;;0.71;100.00;100582.94;5043425;28;20397;-76
2022/12/09 00:10:12;;;;;;;38.72;20.33;;;;;;;0.72;100.00;100585.56;5029222;28;20484;-76
2022/12/09 00:12:38;;;;;;;37.05;20.15;;;;;;;0.70;100.00;100576.72;5041385;28;20520;-77
2022/12/09 00:15:03;;;;;;;41.00;20.20;;;;;;;0.72;100.00;100579.31;5029157;28;20041;-77
2022/12/09 00:17:29;;;;;;;40.50;20.90;;;;;;;0.72;100.00;100582.88;5029333;28;20459;-76
2022/12/09 00:19:55;;;;;;;37.22;19.10;;;;;;;0.73;100.00;100573.91;5028136;28;20110;-76
2022/12/09 00:22:20;;;;;;;38.38;20.70;;;;;;;0.74;100.00;100572.09;5029055;28;20033;-76
2022/12/09 00:24:45;;;;;;;39.92;20.02;;;;;;;0.71;100.00;100570.44;5027783;28;20068;-77
2022/12/09 00:27:11;;;;;;;34.33;19.15;;;;;;;0.70;100.00;100565.09;5031007;28;20119;-76
2022/12/09 00:29:36;;;;;;;39.90;20.08;;;;;;;0.77;100.00;100572.00;5027682;28;20107;-76
2022/12/09 00:32:02;;;;;;;41.97;20.92;;;;;;;0.79;100.00;100569.25;5043576;28;20091;-76
2022/12/09 00:34:27;;;;;;;37.88;20.15;;;;;;;0.80;100.00;100573.69;5028386;28;20029;-76
2022/12/09 00:36:53;;;;;;;34.92;19.88;;;;;;;0.77;100.00;100580.03;5028540;28;20471;-76
2022/12/09 00:39:18;;;;;;;36.70;20.77;;;;;;;0.81;100.00;100578.13;5068591;28;20403;-76
2022/12/09 00:41:43;;;;;;;41.10;20.83;;;;;;;0.81;100.00;100580.81;5035443;28;20035;-76
2022/12/09 00:44:10;;;;;;;44.70;20.58;;;;;;;0.81;100.00;100579.00;5030780;28;20037;-76
2022/12/09 00:46:36;;;;;;;41.50;20.63;;;;;;;0.84;100.00;100581.56;5028451;28;20341;-77
2022/12/09 00:49:03;;;;;;;39.28;20.48;;;;;;;0.84;100.00;100575.31;5026993;28;20095;-76
2022/12/09 00:51:28;;;;;;;38.08;20.88;;;;;;;0.85;100.00;100571.72;5028201;28;20393;-76
2022/12/09 00:53:54;;;;;;;39.88;19.92;;;;;;;0.89;100.00;100581.41;5027488;28;20052;-77
2022/12/09 00:56:25;;;;;;;41.20;21.42;;;;;;;0.90;100.00;100578.66;5027106;28;20041;-76
2022/12/09 00:58:51;;;;;;;39.60;20.88;;;;;;;0.90;100.00;100575.09;5028621;28;20068;-77
2022/12/09 01:01:16;;;;;;;44.80;20.50;;;;;;;0.91;100.00;100574.16;5047221;28;20060;-76
2022/12/09 01:03:42;;;;;;;39.30;20.40;;;;;;;0.91;100.00;100572.38;5042548;28;20091;-76
2022/12/09 01:06:10;;;;;;;43.28;20.33;;;;;;;0.93;100.00;100567.84;5043625;28;20124;-76
2022/12/09 01:08:36;;;;;;;40.85;21.60;;;;;;;0.94;100.00;100574.94;5030224;28;20063;-77
2022/12/09 01:11:08;;;;;;;42.08;21.88;;;;;;;0.94;100.00;100568.72;5048293;28;20560;-77
2022/12/09 01:13:34;;;;;;;46.45;21.48;;;;;;;0.92;100.00;100574.09;5029161;28;20048;-77
2022/12/09 01:15:59;;;;;;;39.83;21.45;;;;;;;0.92;100.00;100574.09;5026760;28;20029;-76
2022/12/09 01:18:25;;;;;;;44.30;21.65;;;;;;;0.92;100.00;100568.75;5027062;28;20029;-76
2022/12/09 01:20:57;;;;;;;46.90;22.13;;;;;;;0.96;100.00;100580.22;5026263;28;20113;-76
2022/12/09 01:23:24;;;;;;;42.60;21.08;;;;;;;0.94;100.00;100577.63;5027819;28;20033;-76
2022/12/09 01:25:49;;;;;;;44.25;22.10;;;;;;;0.96;100.00;100577.53;5026866;28;20071;-77
2022/12/09 01:28:15;;;;;;;45.25;22.92;;;;;;;0.96;100.00;100578.41;5026282;28;20037;-77
2022/12/09 01:30:40;;;;;;;43.10;22.77;;;;;;;0.98;100.00;100581.06;5028484;28;20056;-77
2022/12/09 01:33:06;;;;;;;44.35;23.02;;;;;;;0.97;100.00;100590.88;5026750;28;20037;-76
2022/12/09 01:35:31;;;;;;;44.92;22.98;;;;;;;1.00;100.00;100580.06;5027492;28;20489;-76
2022/12/09 01:37:56;;;;;;;47.53;22.88;;;;;;;0.99;100.00;100580.13;5026399;28;20065;-77
2022/12/09 01:40:22;;;;;;;51.65;22.33;;;;;;;1.04;100.00;100582.63;5043618;28;20033;-77
2022/12/09 01:42:49;;;;;;;49.92;23.10;;;;;;;1.04;100.00;100588.00;5034116;28;20071;-76
2022/12/09 01:45:19;;;;;;;51.50;23.83;;;;;;;1.05;100.00;100579.88;5026525;28;20112;-77
2022/12/09 01:47:47;;;;;;;49.75;24.58;;;;;;;1.04;100.00;100586.19;5042206;28;20047;-77
2022/12/09 01:50:12;;;;;;;52.88;25.27;;;;;;;1.04;100.00;100585.31;5025068;28;20104;-77
2022/12/09 01:52:40;;;;;;;55.65;24.77;;;;;;;1.04;100.00;100590.66;5042990;28;20096;-77
2022/12/09 01:55:06;;;;;;;54.17;23.38;;;;;;;1.05;100.00;100587.03;5026303;28;20044;-77
2022/12/09 01:57:33;;;;;;;54.85;27.25;;;;;;;1.07;100.00;100590.53;5032946;28;20570;-76
2022/12/09 01:59:58;;;;;;;52.10;23.85;;;;;;;1.07;100.00;100582.50;5026183;28;20017;-76
2022/12/09 02:02:27;;;;;;;49.63;24.45;;;;;;;1.08;100.00;100586.94;5026665;28;20246;-77
2022/12/09 02:04:53;;;;;;;60.35;24.25;;;;;;;1.07;100.00;100580.69;5027765;28;20499;-76
2022/12/09 02:07:19;;;;;;;55.35;26.13;;;;;;;1.12;100.00;100583.19;5025830;28;20110;-76
2022/12/09 02:09:45;;;;;;;52.90;23.95;;;;;;;1.09;100.00;100580.66;5041923;28;20385;-76
2022/12/09 02:12:15;;;;;;;55.55;25.15;;;;;;;1.13;100.00;100588.50;5039678;28;20056;-77
2022/12/09 02:14:57;;;;;;;64.10;27.25;;;;;;;1.12;100.00;100593.91;5027237;28;20029;-76
2022/12/09 02:17:34;;;;;;;58.22;24.70;;;;;;;1.12;100.00;100581.41;5025355;28;20377;-76
2022/12/09 02:20:23;;;;;;;57.38;23.27;;;;;;;1.13;100.00;100588.50;5042069;28;20264;-76
2022/12/09 02:23:07;;;;;;;57.42;27.77;;;;;;;1.09;100.00;100583.31;5026104;28;20041;-76
2022/12/09 02:25:46;;;;;;;62.70;25.73;;;;;;;1.12;100.00;100585.88;5030257;28;20056;-76
2022/12/09 02:28:37;;;;;;;55.28;23.55;;;;;;;1.11;100.00;100582.31;5034995;28;20550;-77
2022/12/09 02:31:13;;;;;;;62.70;25.80;;;;;;;1.10;100.00;100587.75;5045003;28;20102;-77
2022/12/09 02:33:42;;;;;;;57.65;24.08;;;;;;;1.09;100.00;100583.31;5027708;28;20087;-76
2022/12/09 02:36:16;;;;;;;60.17;26.30;;;;;;;1.10;100.00;100585.94;5043447;28;20055;-76
2022/12/09 02:38:43;;;;;;;60.45;27.08;;;;;;;1.09;100.00;100583.31;5044327;28;20392;-76
2022/12/09 02:41:15;;;;;;;69.82;26.17;;;;;;;1.09;100.00;100586.88;5026218;28;20037;-76
2022/12/09 02:43:52;;;;;;;66.13;27.73;;;;;;;1.10;100.00;100585.06;5023981;28;20116;-76
2022/12/09 02:46:24;;;;;;;64.93;25.55;;;;;;;1.10;100.00;100585.06;5039771;28;20599;-76
2022/12/09 02:48:54;;;;;;;72.30;27.38;;;;;;;1.09;100.00;100575.28;5023854;28;20037;-77
2022/12/09 02:51:22;;;;;;;67.18;26.70;;;;;;;1.09;100.00;100576.16;5026524;28;20030;-77
2022/12/09 02:53:53;;;;;;;76.65;27.13;;;;;;;1.10;100.00;100574.34;5026854;28;20034;-76
2022/12/09 02:56:20;;;;;;;65.57;26.55;;;;;;;1.09;100.00;100570.81;5042854;28;20033;-77
2022/12/09 02:58:47;;;;;;;58.40;25.20;;;;;;;1.11;100.00;100576.09;5026809;28;20544;-77
2022/12/09 03:01:43;;;;;;;67.28;26.42;;;;;;;1.12;100.00;100572.47;5027174;28;20029;-77
2022/12/09 03:04:15;;;;;;;61.97;26.60;;;;;;;1.12;100.00;100572.47;5008462;28;20065;-76
2022/12/09 03:06:49;;;;;;;68.20;27.70;;;;;;;1.12;100.00;100578.72;5047242;28;20037;-76
2022/12/09 03:09:25;;;;;;;65.40;26.80;;;;;;;1.08;100.00;100569.06;5027639;28;20037;-76
2022/12/09 03:11:51;;;;;;;104.22;27.40;;;;;;;1.09;100.00;100564.56;5033022;28;20033;-76
2022/12/09 03:14:24;;;;;;;76.82;28.02;;;;;;;1.06;100.00;100562.88;5034978;28;20041;-76
2022/12/09 03:17:00;;;;;;;73.75;29.25;;;;;;;1.07;100.00;100566.41;5025289;28;20030;-76
2022/12/09 03:19:32;;;;;;;68.60;29.02;;;;;;;1.06;100.00;100552.16;5024881;28;20500;-76
2022/12/09 03:22:02;;;;;;;73.38;28.17;;;;;;;1.07;100.00;100561.06;5026937;28;20366;-76
2022/12/09 03:24:43;;;;;;;69.97;28.98;;;;;;;1.09;100.00;100552.06;5026767;28;20045;-76
2022/12/09 03:27:11;;;;;;;66.28;26.77;;;;;;;1.13;100.00;100566.22;5026514;28;20056;-76
2022/12/09 03:29:41;;;;;;;80.10;27.60;;;;;;;1.09;100.00;100549.38;5026936;28;20041;-77
2022/12/09 03:32:10;;;;;;;68.85;28.73;;;;;;;1.09;100.00;100548.50;5026357;28;20033;-76
2022/12/09 03:34:39;;;;;;;79.57;29.38;;;;;;;1.10;100.00;100545.75;5041059;28;20038;-76
2022/12/09 03:37:07;;;;;;;74.18;28.50;;;;;;;1.11;100.00;100547.50;5026441;28;20077;-76
2022/12/09 03:39:36;;;;;;;73.20;27.35;;;;;;;1.12;100.00;100545.69;5026972;28;20029;-76
2022/12/09 03:42:15;;;;;;;69.75;28.48;;;;;;;1.11;100.00;100536.78;5033745;28;20517;-76
2022/12/09 03:45:03;;;;;;;89.38;27.30;;;;;;;1.12;100.00;100540.31;5027665;28;20354;-76
2022/12/09 03:47:31;;;;;;;75.85;28.08;;;;;;;1.11;100.00;100539.47;5024672;28;20034;-76
2022/12/09 03:49:57;;;;;;;85.22;32.40;;;;;;;1.10;100.00;100536.84;5026044;28;20467;-76
2022/12/09 03:52:35;;;;;;;72.97;28.95;;;;;;;1.08;100.00;100536.91;5036208;28;20035;-76
2022/12/09 03:55:06;;;;;;;78.05;31.63;;;;;;;1.11;100.00;100539.47;5029022;28;20044;-76
2022/12/09 03:57:37;;;;;;;86.07;29.27;;;;;;;1.13;100.00;100544.78;5030291;28;20512;-76
2022/12/09 04:00:04;;;;;;;75.57;30.90;;;;;;;1.11;100.00;100542.13;5030034;28;20056;-76
2022/12/09 04:02:38;;;;;;;76.82;29.48;;;;;;;1.12;100.00;100551.94;5028304;28;20109;-76
2022/12/09 04:05:03;;;;;;;76.55;28.63;;;;;;;1.11;100.00;100544.81;5029173;28;20029;-76
2022/12/09 04:07:29;;;;;;;77.00;31.25;;;;;;;1.11;100.00;100541.25;5029786;28;20033;-76
2022/12/09 04:09:54;;;;;;;76.28;30.13;;;;;;;1.12;100.00;100543.00;5030226;28;20038;-76
2022/12/09 04:12:20;;;;;;;83.90;31.45;;;;;;;1.13;100.00;100536.75;5042730;28;20480;-76
2022/12/09 04:14:45;;;;;;;79.90;29.63;;;;;;;1.15;100.00;100542.91;5043823;28;20113;-76
2022/12/09 04:17:11;;;;;;;83.53;31.73;;;;;;;1.14;100.00;100536.66;5028814;28;20119;-76
2022/12/09 04:19:37;;;;;;;78.20;30.77;;;;;;;1.14;100.00;100534.00;5026421;28;20607;-77
2022/12/09 04:22:03;;;;;;;89.22;33.15;;;;;;;1.15;100.00;100534.88;5029636;28;20374;-77
2022/12/09 04:24:28;;;;;;;78.63;31.52;;;;;;;1.14;100.00;100536.66;5028344;28;20033;-77
2022/12/09 04:26:54;;;;;;;82.30;31.63;;;;;;;1.15;100.00;100538.41;5029055;28;20063;-76
2022/12/09 04:29:19;;;;;;;89.45;31.73;;;;;;;1.15;100.00;100534.88;5029209;28;20060;-76
2022/12/09 04:31:44;;;;;;;87.72;33.55;;;;;;;1.12;100.00;100534.97;5029289;28;20032;-76
2022/12/09 04:34:11;;;;;;;80.78;30.60;;;;;;;1.14;100.00;100534.00;5029033;28;20068;-76
2022/12/09 04:36:37;;;;;;;75.00;28.83;;;;;;;1.16;100.00;100534.78;5035287;28;20069;-76
2022/12/09 04:39:03;;;;;;;80.10;30.35;;;;;;;1.15;100.00;100525.00;5029123;28;20041;-76
2022/12/09 04:41:28;;;;;;;78.25;27.27;;;;;;;1.16;100.00;100531.25;5036762;28;20492;-76
2022/12/09 04:43:53;;;;;;;77.65;29.52;;;;;;;1.15;100.00;100533.06;5044078;28;20182;-76
2022/12/09 04:46:19;;;;;;;68.15;29.15;;;;;;;1.17;100.00;100530.34;5027713;28;20029;-76
2022/12/09 04:48:45;;;;;;;78.05;29.35;;;;;;;1.18;100.00;100526.72;5029512;28;20546;-76
2022/12/09 04:51:12;;;;;;;72.75;29.67;;;;;;;1.18;100.00;100526.72;5049533;28;20029;-76
2022/12/09 04:53:38;;;;;;;77.55;27.88;;;;;;;1.18;100.00;100530.28;5048068;28;20040;-76
2022/12/09 04:56:17;;;;;;;75.00;28.38;;;;;;;1.19;100.00;100523.97;5043161;28;20076;-76
2022/12/09 04:58:43;;;;;;;77.95;30.17;;;;;;;1.19;100.00;100532.00;5041299;28;20059;-76
2022/12/09 05:01:11;;;;;;;64.63;28.85;;;;;;;1.18;100.00;100532.94;5028051;28;20544;-76
2022/12/09 05:03:37;;;;;;;65.38;28.38;;;;;;;1.18;100.00;100535.63;5027687;28;20415;-76
2022/12/09 05:06:09;;;;;;;65.55;27.88;;;;;;;1.17;100.00;100538.38;5028261;28;20572;-77
2022/12/09 05:08:34;;;;;;;69.07;28.60;;;;;;;1.18;100.00;100537.44;5018915;28;20091;-76
2022/12/09 05:11:00;;;;;;;67.78;27.15;;;;;;;1.18;100.00;100534.75;5031520;28;20037;-76
2022/12/09 05:13:26;;;;;;;55.92;25.75;;;;;;;1.16;100.00;100534.78;5023803;28;20026;-76
2022/12/09 05:16:18;;;;;;;61.38;26.67;;;;;;;1.19;100.00;100531.13;5027356;28;20037;-76
2022/12/09 05:18:46;;;;;;;59.67;28.42;;;;;;;1.17;100.00;100536.56;5027411;28;20049;-76
2022/12/09 05:21:15;;;;;;;63.33;28.05;;;;;;;1.18;100.00;100537.44;5024668;28;20095;-76
2022/12/09 05:23:40;;;;;;;65.50;28.40;;;;;;;1.18;100.00;100542.78;5028866;28;20499;-76
2022/12/09 05:26:10;;;;;;;75.03;29.88;;;;;;;1.17;100.00;100535.69;5028095;28;20037;-76
2022/12/09 05:28:36;;;;;;;65.35;30.88;;;;;;;1.16;100.00;100536.59;5027270;28;20372;-76
2022/12/09 05:31:03;;;;;;;71.38;29.25;;;;;;;1.18;100.00;100529.41;5028403;28;20025;-76
2022/12/09 05:33:29;;;;;;;60.70;28.90;;;;;;;1.17;100.00;100536.56;5031157;28;20034;-76
2022/12/09 05:35:55;;;;;;;61.67;28.67;;;;;;;1.17;100.00;100538.38;5027752;28;20041;-76
2022/12/09 05:38:21;;;;;;;70.80;28.70;;;;;;;1.16;100.00;100537.47;5028006;28;20026;-76
2022/12/09 05:40:46;;;;;;;63.50;28.92;;;;;;;1.17;100.00;100538.38;5030036;28;20128;-76
2022/12/09 05:43:12;;;;;;;62.58;28.00;;;;;;;1.15;100.00;100541.09;5044436;28;20472;-76
2022/12/09 05:45:37;;;;;;;69.80;29.23;;;;;;;1.13;100.00;100529.56;5048490;28;20064;-76
2022/12/09 05:48:03;;;;;;;70.03;30.10;;;;;;;1.13;100.00;100526.91;5040230;28;20568;-76
2022/12/09 05:50:28;;;;;;;58.95;27.20;;;;;;;1.15;100.00;100537.53;5027513;28;20017;-76
2022/12/09 05:52:53;;;;;;;66.75;27.58;;;;;;;1.13;100.00;100528.69;5026395;28;20103;-76
2022/12/09 05:55:19;;;;;;;65.60;29.67;;;;;;;1.14;100.00;100528.63;5026831;28;20047;-76
2022/12/09 05:57:44;;;;;;;63.38;28.05;;;;;;;1.16;100.00;100533.91;5043984;28;20067;-76
2022/12/09 06:00:10;;;;;;;70.18;28.08;;;;;;;1.16;100.00;100532.13;5042458;28;20055;-76
2022/12/09 06:02:39;;;;;;;67.28;30.63;;;;;;;1.16;100.00;100526.75;5027438;28;20040;-76
2022/12/09 06:05:05;;;;;;;69.38;29.00;;;;;;;1.16;100.00;100528.56;5026136;28;20195;-76
2022/12/09 06:07:30;;;;;;;72.25;28.83;;;;;;;1.13;100.00;100524.22;5026227;28;20414;-76
2022/12/09 06:09:55;;;;;;;56.00;26.83;;;;;;;1.16;100.00;100526.75;5026536;28;20040;-76
2022/12/09 06:12:21;;;;;;;60.67;27.30;;;;;;;1.18;100.00;100522.22;5034750;28;20030;-76
2022/12/09 06:14:46;;;;;;;59.88;27.48;;;;;;;1.12;100.00;100513.53;5040788;28;20116;-76
2022/12/09 06:17:12;;;;;;;68.18;27.45;;;;;;;1.09;100.00;100517.22;5039825;28;20036;-77
2022/12/09 06:19:37;;;;;;;69.15;29.08;;;;;;;1.14;100.00;100525.97;5031228;28;20037;-76
2022/12/09 06:22:02;;;;;;;66.05;29.10;;;;;;;1.15;100.00;100529.50;5032700;28;20037;-76
2022/12/09 06:24:28;;;;;;;65.32;28.30;;;;;;;1.13;100.00;100526.91;5027244;28;20036;-76
2022/12/09 06:26:53;;;;;;;67.93;29.10;;;;;;;1.12;100.00;100529.63;5031621;28;20558;-77
2022/12/09 06:29:18;;;;;;;68.45;28.52;;;;;;;1.10;100.00;100524.31;5033701;28;20102;-76
2022/12/09 06:31:44;;;;;;;65.82;27.42;;;;;;;1.09;100.00;100527.94;5042703;28;20116;-76
2022/12/09 06:34:09;;;;;;;67.47;28.40;;;;;;;1.08;100.00;100522.66;5034928;28;20051;-76
2022/12/09 06:36:35;;;;;;;64.00;26.85;;;;;;;1.09;100.00;100522.59;5043015;28;20075;-76
2022/12/09 06:39:02;;;;;;;63.45;26.95;;;;;;;1.11;100.00;100525.19;5045511;28;20039;-76
2022/12/09 06:41:28;;;;;;;62.25;27.70;;;;;;;1.07;100.00;100518.22;5044172;28;20513;-76
2022/12/09 06:43:56;;;;;;;61.53;27.02;;;;;;;1.06;100.00;100525.38;5041943;28;20128;-76
2022/12/09 06:46:22;;;;;;;58.47;24.95;;;;;;;1.08;100.00;100533.38;5043736;28;20094;-76
2022/12/09 06:48:48;;;;;;;64.63;27.30;;;;;;;1.06;100.00;100527.19;5042735;28;20096;-76
2022/12/09 06:51:15;;;;;;;59.53;26.73;;;;;;;1.05;100.00;100529.00;5040478;28;20112;-76
2022/12/09 06:53:40;;;;;;;61.13;26.40;;;;;;;1.03;100.00;100528.19;5045315;28;20025;-76
2022/12/09 06:56:07;;;;;;;58.58;26.15;;;;;;;1.02;100.00;100526.41;5020044;28;20492;-76
2022/12/09 06:58:33;;;;;;;65.95;26.25;;;;;;;0.98;100.00;100522.13;5030722;28;20492;-76
2022/12/09 07:01:07;;;;;;;57.40;25.17;;;;;;;0.98;100.00;100524.81;5042548;28;20079;-77
2022/12/09 07:03:33;;;;;;;65.43;27.60;;;;;;;0.99;100.00;100526.56;5037852;28;20033;-77
2022/12/09 07:05:59;;;;;;;60.72;26.90;;;;;;;0.99;100.00;100534.59;5043473;28;20025;-76
2022/12/09 07:08:25;;;;;;;67.18;28.65;;;;;;;0.97;100.00;100531.94;5035820;28;20085;-76
2022/12/09 07:10:50;;;;;;;66.78;29.30;;;;;;;0.97;100.00;100539.97;5042105;28;20530;-76
2022/12/09 07:13:15;;;;;;;67.63;27.98;;;;;;;0.94;100.00;100532.09;5037897;28;20034;-76
2022/12/09 07:15:41;;;;;;;67.95;29.10;;;;;;;0.91;100.00;100534.00;5026836;28;20469;-76
2022/12/09 07:18:07;;;;;;;74.07;30.75;;;;;;;0.88;100.00;100540.34;5038460;28;20627;-76
2022/12/09 07:20:32;;;;;;;77.60;31.40;;;;;;;0.79;100.00;100529.97;5024445;28;20606;-76
2022/12/09 07:22:58;;;;;;;72.82;32.28;;;;;;;0.77;100.00;100540.75;5026073;28;20030;-76
2022/12/09 07:25:23;;;;;;;69.57;28.10;;;;;;;0.75;100.00;100547.97;5026601;28;20083;-76
2022/12/09 07:27:48;;;;;;;68.80;30.02;;;;;;;0.73;100.00;100551.63;5029741;28;20021;-76
2022/12/09 07:30:14;;;;;;;75.57;29.35;;;;;;;0.67;100.00;100552.72;5029315;28;20560;-76
2022/12/09 07:32:39;;;;;;;70.50;28.50;;;;;;;0.66;100.00;100558.16;5012205;28;20088;-76
2022/12/09 07:35:05;;;;;;;58.42;27.10;;;;;;;0.61;100.00;100554.75;5029816;28;20048;-76
2022/12/09 07:37:30;;;;;;;64.22;27.10;;;;;;;0.58;100.00;100553.06;5030012;28;20489;-76
2022/12/09 07:39:55;;;;;;;68.15;29.10;;;;;;;0.57;100.00;100553.13;5029188;28;20033;-76
2022/12/09 07:42:21;;;;;;;65.15;27.83;;;;;;;0.54;100.00;100561.25;5027613;28;20068;-76
2022/12/09 07:44:52;;;;;;;65.47;27.60;;;;;;;0.54;100.00;100569.28;5044075;28;20032;-77
2022/12/09 07:47:17;;;;;;;63.85;27.42;;;;;;;0.53;100.00;100567.53;5029523;28;20057;-76
2022/12/09 07:49:43;;;;;;;65.35;27.25;;;;;;;0.55;100.00;100573.69;5028952;28;20206;-76
2022/12/09 07:52:08;;;;;;;66.45;27.40;;;;;;;0.54;100.00;100571.94;5029230;28;20033;-76
2022/12/09 07:54:33;;;;;;;72.43;27.67;;;;;;;0.54;100.00;100577.31;5012516;28;20134;-76
2022/12/09 07:56:59;;;;;;;58.25;25.92;;;;;;;0.51;100.00;100572.91;5030403;28;20021;-76
2022/12/09 07:59:24;;;;;;;66.15;26.67;;;;;;;0.49;100.00;100573.00;5029206;28;20033;-76
2022/12/09 08:01:49;;;;;;;56.25;25.95;;;;;;;0.45;100.00;100573.16;5029526;28;20037;-76
2022/12/09 08:04:15;;;;;;;60.83;26.05;;;;;;;0.45;100.00;100578.50;5043966;28;20133;-77
2022/12/09 08:06:40;;;;;;;58.60;25.80;;;;;;;0.41;100.00;100569.69;5029661;28;20069;-76
2022/12/09 08:09:09;;;;;;;58.70;26.13;;;;;;;0.37;100.00;100572.53;5029585;28;20029;-76
2022/12/09 08:11:34;;;;;;;63.83;24.92;;;;;;;0.32;100.00;100571.81;5038009;28;20072;-77
2022/12/09 08:14:03;;;;;;;58.22;25.90;;;;;;;0.28;100.00;100573.75;5025896;28;20456;-76
2022/12/09 08:16:28;;;;;;;53.53;23.95;;;;;;;0.23;100.00;100571.25;5029649;28;20366;-76
2022/12/09 08:18:54;;;;;;;57.90;24.67;;;;;;;0.21;100.00;100570.41;5028460;28;20041;-76
2022/12/09 08:21:23;;;;;;;56.60;25.15;;;;;;;0.15;100.00;100575.97;5029091;28;20706;-76
2022/12/09 08:23:50;;;;;;;51.15;23.75;;;;;;;0.10;100.00;100577.06;5029424;28;20033;-76
2022/12/09 08:26:17;;;;;;;55.58;26.77;;;;;;;-0.01;100.00;100566.69;5027887;28;20136;-76
2022/12/09 08:28:43;;;;;;;58.15;25.52;;;;;;;-0.03;100.00;100577.47;5040774;28;20045;-76
2022/12/09 08:31:10;;;;;;;55.72;25.42;;;;;;;-0.06;100.00;100571.34;5029538;28;20037;-77
2022/12/09 08:33:37;;;;;;;64.53;27.85;;;;;;;-0.10;100.00;100578.56;5026821;28;20083;-76
2022/12/09 08:36:07;;;;;;;59.30;26.40;;;;;;;-0.13;100.00;100578.69;5027931;28;20057;-76
2022/12/09 08:38:33;;;;;;;60.40;25.13;;;;;;;-0.12;100.00;100584.91;5042823;28;20112;-76
2022/12/09 08:41:07;;;;;;;68.00;27.17;;;;;;;-0.11;100.00;100571.47;5011929;28;20033;-76
2022/12/09 08:43:32;;;;;;;63.13;27.00;;;;;;;-0.08;100.00;100573.19;5028131;28;20111;-77
2022/12/09 08:45:58;;;;;;;65.20;25.67;;;;;;;-0.06;100.00;100564.19;5027074;28;20056;-76
2022/12/09 08:48:24;;;;;;;54.95;24.40;;;;;;;-0.04;100.00;100564.16;5027774;28;20026;-76
2022/12/09 08:50:49;;;;;;;63.40;27.00;;;;;;;-0.05;100.00;100568.63;5026947;28;20026;-76
2022/12/09 08:53:14;;;;;;;61.90;27.92;;;;;;;-0.05;100.00;100565.97;5015998;28;20041;-77
2022/12/09 08:55:41;;;;;;;62.13;25.95;;;;;;;-0.06;100.00;100566.84;5029540;28;20431;-77
2022/12/09 08:58:06;;;;;;;66.68;28.15;;;;;;;-0.05;100.00;100565.97;5030409;28;20033;-76
2022/12/09 09:00:31;;;;;;;61.70;26.27;;;;;;;0.00;100.00;100576.50;5027476;28;20623;-77
2022/12/09 09:02:57;;;;;;;67.53;27.20;;;;;;;0.04;100.00;100579.91;5033058;28;20107;-76
2022/12/09 09:05:22;;;;;;;63.25;27.13;;;;;;;0.06;100.00;100570.94;5043479;28;20111;-76
2022/12/09 09:07:47;;;;;;;63.47;28.27;;;;;;;0.10;100.00;100564.56;5028764;28;20044;-77
2022/12/09 09:10:13;;;;;;;67.15;27.35;;;;;;;0.15;100.00;100577.78;5027505;28;20037;-77
2022/12/09 09:12:38;;;;;;;70.57;29.77;;;;;;;0.20;100.00;100579.34;5037722;28;20023;-76
2022/12/09 09:15:04;;;;;;;75.40;28.27;;;;;;;0.24;100.00;100578.34;5028750;28;20079;-76
2022/12/09 09:17:29;;;;;;;69.95;28.65;;;;;;;0.31;100.00;100583.47;5027683;28;20099;-76
2022/12/09 09:19:54;;;;;;;67.18;26.80;;;;;;;0.37;100.00;100588.59;5027127;28;20400;-76
2022/12/09 09:22:20;;;;;;;68.03;27.63;;;;;;;0.39;100.00;100589.44;5027855;28;20033;-76
2022/12/09 09:24:45;;;;;;;71.50;28.00;;;;;;;0.41;100.00;100588.44;5028186;28;20041;-76
2022/12/09 09:27:10;;;;;;;74.28;28.98;;;;;;;0.45;100.00;100594.56;5027117;28;20156;-76
2022/12/09 09:29:36;;;;;;;72.18;27.13;;;;;;;0.53;100.00;100587.13;5045529;28;20543;-76
2022/12/09 09:32:01;;;;;;;63.88;27.88;;;;;;;0.60;100.00;100595.81;5046465;28;20028;-77
2022/12/09 09:34:27;;;;;;;72.00;27.52;;;;;;;0.62;100.00;100586.81;5041370;28;20041;-77
2022/12/09 09:36:54;;;;;;;61.60;27.35;;;;;;;0.68;100.00;100594.63;5026765;28;20079;-77
2022/12/09 09:39:20;;;;;;;67.55;26.92;;;;;;;0.74;100.00;100591.72;5026767;28;20041;-77
2022/12/09 09:41:55;;;;;;;66.95;26.40;;;;;;;0.78;100.00;100595.16;5032911;28;20128;-77
2022/12/09 09:44:41;;;;;;;70.93;27.10;;;;;;;0.81;100.00;100594.19;5041009;28;20041;-76
2022/12/09 09:47:16;;;;;;;68.57;28.65;;;;;;;0.80;100.00;100587.09;5026188;28;20064;-76
2022/12/09 09:50:02;;;;;;;74.35;28.80;;;;;;;0.88;100.00;100591.22;5009816;28;20175;-77
2022/12/09 09:52:29;;;;;;;74.90;29.33;;;;;;;0.98;100.00;100581.06;5026684;28;20033;-77
2022/12/09 09:54:55;;;;;;;70.07;27.63;;;;;;;1.01;100.00;100580.94;5026177;28;20041;-77
2022/12/09 09:57:34;;;;;;;69.50;30.80;;;;;;;1.02;100.00;100588.03;5015243;28;20033;-76
2022/12/09 10:00:26;;;;;;;69.75;27.88;;;;;;;1.05;100.00;100581.69;5041205;28;20515;-76
2022/12/09 10:03:01;;;;;;;69.43;27.55;;;;;;;1.05;100.00;100579.88;5026815;28;20540;-76
2022/12/09 10:05:33;;;;;;;75.18;29.13;;;;;;;1.13;100.00;100579.59;5026535;28;20473;-77
2022/12/09 10:08:44;;;;;;;66.72;28.38;;;;;;;1.17;100.00;100582.09;5026183;28;20448;-77
2022/12/09 10:11:17;;;;;;;66.85;27.83;;;;;;;1.25;100.00;100581.78;5009889;28;20080;-77
2022/12/09 10:14:14;;;;;;;65.80;27.95;;;;;;;1.30;100.00;100574.44;5039784;28;20033;-76
2022/12/09 10:17:07;;;;;;;60.08;25.70;;;;;;;1.38;100.00;100584.88;5027687;28;20033;-76
2022/12/09 10:19:36;;;;;;;60.50;25.98;;;;;;;1.40;100.00;100580.31;5026291;28;20452;-76
2022/12/09 10:22:20;;;;;;;56.85;24.55;;;;;;;1.34;100.00;100577.91;5027131;28;20060;-76
2022/12/09 10:24:53;;;;;;;62.25;26.33;;;;;;;1.22;100.00;100574.78;5025752;28;20434;-76
2022/12/09 10:27:54;;;;;;;64.43;27.02;;;;;;;1.17;100.00;100578.56;5026358;28;20428;-76
2022/12/09 10:30:21;;;;;;;62.22;25.52;;;;;;;1.11;100.00;100576.97;5026106;28;20045;-76
2022/12/09 10:32:47;;;;;;;57.88;25.50;;;;;;;1.11;100.00;100578.78;5029375;28;20049;-76
2022/12/09 10:35:16;;;;;;;64.80;27.20;;;;;;;1.13;100.00;100577.78;5042462;28;20485;-76
2022/12/09 10:37:42;;;;;;;65.97;25.42;;;;;;;1.10;100.00;100585.94;5033026;28;20073;-76
2022/12/09 10:40:11;;;;;;;62.15;26.77;;;;;;;1.12;100.00;100575.16;5027738;28;20116;-76
2022/12/09 10:45:50;;;;;;;57.33;25.23;;;;;;;1.15;100.00;100578.59;5027523;28;20691;-76
2022/12/09 10:48:29;;;;;;;62.25;26.92;;;;;;;1.10;100.00;100579.72;5041145;28;20034;-76
2022/12/09 10:51:01;;;;;;;60.92;25.20;;;;;;;1.10;100.00;100574.34;5029616;28;20497;-76
2022/12/09 10:53:28;;;;;;;66.10;27.45;;;;;;;1.11;100.00;100576.09;5026464;28;20068;-76
2022/12/09 10:55:55;;;;;;;60.60;25.83;;;;;;;1.14;100.00;100570.63;5013230;28;20025;-77
2022/12/09 10:58:29;;;;;;;57.83;25.35;;;;;;;1.15;100.00;100557.16;5028336;28;20121;-76
2022/12/09 11:00:59;;;;;;;70.53;26.90;;;;;;;1.20;100.00;100565.03;5039786;28;20550;-76
2022/12/09 11:03:39;;;;;;;62.33;24.80;;;;;;;1.23;100.00;100559.56;5039088;28;20086;-76
2022/12/09 11:06:27;;;;;;;59.83;24.70;;;;;;;1.38;100.00;100558.09;5047520;28;20135;-76
2022/12/09 11:09:02;;;;;;;58.20;23.80;;;;;;;1.52;100.00;100561.09;5050475;28;20036;-76
2022/12/09 11:11:38;;;;;;;64.15;22.73;;;;;;;1.61;100.00;100565.22;5049744;28;20051;-76
2022/12/09 11:14:23;;;;;;;58.65;24.40;;;;;;;1.66;100.00;100561.41;5038962;28;20060;-76
2022/12/09 11:16:54;;;;;;;57.10;23.60;;;;;;;1.68;100.00;100567.59;5049979;28;20032;-76
2022/12/09 11:19:32;;;;;;;60.03;23.92;;;;;;;1.68;100.00;100564.91;5037337;28;20088;-77